sensor_id;sensor_type;location;lat;lon;timestamp;pressure;altitude;pressure_sealevel;temperature;humidity
54453;BME280;40363;52.270;10.546;2023-07-29T00:01:30;75135.03;;;-147.06;100.00
54453;BME280;40363;52.270;10.546;2023-07-29T00:03:57;75132.97;;;-147.06;100.00
54453;BME280;40363;52.270;10.546;2023-07-29T00:06:24;75132.97;;;-147.06;100.00
54453;BME280;40363;52.270;10.546;2023-07-29T00:08:50;75128.88;;;-147.06;100.00
54453;BME280;40363;52.270;10.546;2023-07-29T00:11:18;75132.97;;;-147.06;100.00
54453;BME280;40363;52.270;10.546;2023-07-29T00:13:45;75122.69;;;-147.06;100.00
54453;BME280;40363;52.270;10.546;2023-07-29T00:16:12;75112.44;;;-147.06;100.00
54453;BME280;40363;52.270;10.546;2023-07-29T00:18:41;75091.88;;;-147.06;100.00
54453;BME280;40363;52.270;10.546;2023-07-29T00:21:07;75096.00;;;-147.06;100.00
54453;BME280;40363;52.270;10.546;2023-07-29T00:23:34;75100.09;;;-147.06;100.00
54453;BME280;40363;52.270;10.546;2023-07-29T00:26:00;75096.00;;;-147.06;100.00
54453;BME280;40363;52.270;10.546;2023-07-29T00:28:28;75091.88;;;-147.06;100.00
54453;BME280;40363;52.270;10.546;2023-07-29T00:30:55;75087.78;;;-147.06;100.00
54453;BME280;40363;52.270;10.546;2023-07-29T00:33:22;75085.72;;;-147.06;100.00
54453;BME280;40363;52.270;10.546;2023-07-29T00:35:48;75083.66;;;-147.06;100.00
54453;BME280;40363;52.270;10.546;2023-07-29T00:38:17;75081.59;;;-147.06;100.00
54453;BME280;40363;52.270;10.546;2023-07-29T00:40:43;75077.50;;;-147.06;100.00
54453;BME280;40363;52.270;10.546;2023-07-29T00:43:10;75081.59;;;-147.06;100.00
54453;BME280;40363;52.270;10.546;2023-07-29T00:45:38;75079.56;;;-147.06;100.00
54453;BME280;40363;52.270;10.546;2023-07-29T00:48:05;75069.28;;;-147.06;100.00
54453;BME280;40363;52.270;10.546;2023-07-29T00:50:32;75071.34;;;-147.06;100.00
54453;BME280;40363;52.270;10.546;2023-07-29T00:52:59;75065.16;;;-147.06;100.00
54453;BME280;40363;52.270;10.546;2023-07-29T00:55:25;75071.34;;;-147.06;100.00
54453;BME280;40363;52.270;10.546;2023-07-29T00:57:52;75059.00;;;-147.06;100.00
54453;BME280;40363;52.270;10.546;2023-07-29T01:00:20;75054.91;;;-147.06;100.00
54453;BME280;40363;52.270;10.546;2023-07-29T01:02:48;75054.91;;;-147.06;100.00
54453;BME280;40363;52.270;10.546;2023-07-29T01:05:16;75056.94;;;-147.06;100.00
54453;BME280;40363;52.270;10.546;2023-07-29T01:07:47;75059.00;;;-147.06;100.00
54453;BME280;40363;52.270;10.546;2023-07-29T01:10:24;75054.91;;;-147.06;100.00
54453;BME280;40363;52.270;10.546;2023-07-29T01:12:59;75063.13;;;-147.06;100.00
54453;BME280;40363;52.270;10.546;2023-07-29T01:15:31;75059.00;;;-147.06;100.00
54453;BME280;40363;52.270;10.546;2023-07-29T01:18:05;75056.94;;;-147.06;100.00
54453;BME280;40363;52.270;10.546;2023-07-29T01:20:33;75046.69;;;-147.06;100.00
54453;BME280;40363;52.270;10.546;2023-07-29T01:23:00;75040.50;;;-147.06;100.00
54453;BME280;40363;52.270;10.546;2023-07-29T01:25:28;75042.56;;;-147.06;100.00
54453;BME280;40363;52.270;10.546;2023-07-29T01:27:55;75046.69;;;-147.06;100.00
54453;BME280;40363;52.270;10.546;2023-07-29T01:30:26;75044.63;;;-147.06;100.00
54453;BME280;40363;52.270;10.546;2023-07-29T01:32:59;75040.50;;;-147.06;100.00
54453;BME280;40363;52.270;10.546;2023-07-29T01:35:33;75044.63;;;-147.06;100.00
54453;BME280;40363;52.270;10.546;2023-07-29T01:38:06;75046.69;;;-147.06;100.00
54453;BME280;40363;52.270;10.546;2023-07-29T01:40:37;75059.00;;;-147.06;100.00
54453;BME280;40363;52.270;10.546;2023-07-29T01:43:04;75054.91;;;-147.06;100.00
54453;BME280;40363;52.270;10.546;2023-07-29T01:45:32;75054.91;;;-147.06;100.00
54453;BME280;40363;52.270;10.546;2023-07-29T01:48:03;75054.91;;;-147.06;100.00
54453;BME280;40363;52.270;10.546;2023-07-29T01:50:30;75056.94;;;-147.06;100.00
54453;BME280;40363;52.270;10.546;2023-07-29T01:52:57;75059.00;;;-147.06;100.00
54453;BME280;40363;52.270;10.546;2023-07-29T01:55:24;75048.72;;;-147.06;100.00
54453;BME280;40363;52.270;10.546;2023-07-29T01:57:52;75054.91;;;-147.06;100.00
54453;BME280;40363;52.270;10.546;2023-07-29T02:00:19;75065.16;;;-147.06;100.00
54453;BME280;40363;52.270;10.546;2023-07-29T02:02:46;75063.13;;;-147.06;100.00
54453;BME280;40363;52.270;10.546;2023-07-29T02:05:12;75073.38;;;-147.06;100.00
54453;BME280;40363;52.270;10.546;2023-07-29T02:07:39;75071.34;;;-147.06;100.00
54453;BME280;40363;52.270;10.546;2023-07-29T02:10:06;75071.34;;;-147.06;100.00
54453;BME280;40363;52.270;10.546;2023-07-29T02:12:34;75079.56;;;-147.06;100.00
54453;BME280;40363;52.270;10.546;2023-07-29T02:15:02;75075.44;;;-147.06;100.00
54453;BME280;40363;52.270;10.546;2023-07-29T02:17:29;75081.59;;;-147.06;100.00
54453;BME280;40363;52.270;10.546;2023-07-29T02:19:55;75081.59;;;-147.06;100.00
54453;BME280;40363;52.270;10.546;2023-07-29T02:22:22;75091.88;;;-147.06;100.00
54453;BME280;40363;52.270;10.546;2023-07-29T02:24:49;75096.00;;;-147.06;100.00
54453;BME280;40363;52.270;10.546;2023-07-29T02:27:15;75104.22;;;-147.06;100.00
54453;BME280;40363;52.270;10.546;2023-07-29T02:29:42;75104.22;;;-147.06;100.00
54453;BME280;40363;52.270;10.546;2023-07-29T02:32:10;75110.38;;;-147.06;100.00
54453;BME280;40363;52.270;10.546;2023-07-29T02:34:36;75104.22;;;-147.06;100.00
54453;BME280;40363;52.270;10.546;2023-07-29T02:37:03;75106.25;;;-147.06;100.00
54453;BME280;40363;52.270;10.546;2023-07-29T02:39:30;75108.31;;;-147.06;100.00
54453;BME280;40363;52.270;10.546;2023-07-29T02:41:57;75122.69;;;-147.06;100.00
54453;BME280;40363;52.270;10.546;2023-07-29T02:44:23;75120.66;;;-147.06;100.00
54453;BME280;40363;52.270;10.546;2023-07-29T02:46:50;75114.47;;;-147.06;100.00
54453;BME280;40363;52.270;10.546;2023-07-29T02:49:21;75118.59;;;-147.06;100.00
54453;BME280;40363;52.270;10.546;2023-07-29T02:51:48;75122.69;;;-147.06;100.00
54453;BME280;40363;52.270;10.546;2023-07-29T02:54:15;75128.88;;;-147.06;100.00
54453;BME280;40363;52.270;10.546;2023-07-29T02:56:41;75124.75;;;-147.06;100.00
54453;BME280;40363;52.270;10.546;2023-07-29T02:59:08;75130.91;;;-147.06;100.00
54453;BME280;40363;52.270;10.546;2023-07-29T03:01:35;75132.97;;;-147.06;100.00
54453;BME280;40363;52.270;10.546;2023-07-29T03:04:01;75130.91;;;-147.06;100.00
54453;BME280;40363;52.270;10.546;2023-07-29T03:06:29;75122.69;;;-147.06;100.00
54453;BME280;40363;52.270;10.546;2023-07-29T03:08:56;75114.47;;;-147.06;100.00
54453;BME280;40363;52.270;10.546;2023-07-29T03:11:23;75114.47;;;-147.06;100.00
54453;BME280;40363;52.270;10.546;2023-07-29T03:13:49;75106.25;;;-147.06;100.00
54453;BME280;40363;52.270;10.546;2023-07-29T03:16:17;75093.94;;;-147.06;100.00
54453;BME280;40363;52.270;10.546;2023-07-29T03:18:44;75093.94;;;-147.06;100.00
54453;BME280;40363;52.270;10.546;2023-07-29T03:21:11;75091.88;;;-147.06;100.00
54453;BME280;40363;52.270;10.546;2023-07-29T03:23:39;75083.66;;;-147.06;100.00
54453;BME280;40363;52.270;10.546;2023-07-29T03:26:05;75091.88;;;-147.06;100.00
54453;BME280;40363;52.270;10.546;2023-07-29T03:28:36;75083.66;;;-147.06;100.00
54453;BME280;40363;52.270;10.546;2023-07-29T03:31:03;75079.56;;;-147.06;100.00
54453;BME280;40363;52.270;10.546;2023-07-29T03:33:30;75083.66;;;-147.06;100.00
54453;BME280;40363;52.270;10.546;2023-07-29T03:35:57;75081.59;;;-147.06;100.00
54453;BME280;40363;52.270;10.546;2023-07-29T03:38:23;75079.56;;;-147.06;100.00
54453;BME280;40363;52.270;10.546;2023-07-29T03:40:52;75071.34;;;-147.06;100.00
54453;BME280;40363;52.270;10.546;2023-07-29T03:43:19;75067.22;;;-147.06;100.00
54453;BME280;40363;52.270;10.546;2023-07-29T03:45:46;75061.06;;;-147.06;100.00
54453;BME280;40363;52.270;10.546;2023-07-29T03:48:13;75061.06;;;-147.06;100.00
54453;BME280;40363;52.270;10.546;2023-07-29T03:50:39;75050.78;;;-147.06;100.00
54453;BME280;40363;52.270;10.546;2023-07-29T03:53:06;75054.91;;;-147.06;100.00
54453;BME280;40363;52.270;10.546;2023-07-29T03:55:34;75046.69;;;-147.06;100.00
54453;BME280;40363;52.270;10.546;2023-07-29T03:58:02;75050.78;;;-147.06;100.00
54453;BME280;40363;52.270;10.546;2023-07-29T04:00:29;75046.69;;;-147.06;100.00
54453;BME280;40363;52.270;10.546;2023-07-29T04:02:55;75046.69;;;-147.06;100.00
54453;BME280;40363;52.270;10.546;2023-07-29T04:05:22;75050.78;;;-147.06;100.00
54453;BME280;40363;52.270;10.546;2023-07-29T04:07:49;75046.69;;;-147.06;100.00
54453;BME280;40363;52.270;10.546;2023-07-29T04:10:15;75042.56;;;-147.06;100.00
54453;BME280;40363;52.270;10.546;2023-07-29T04:12:43;75044.63;;;-147.06;100.00
54453;BME280;40363;52.270;10.546;2023-07-29T04:15:11;75054.91;;;-147.06;100.00
54453;BME280;40363;52.270;10.546;2023-07-29T04:17:37;75046.69;;;-147.06;100.00
54453;BME280;40363;52.270;10.546;2023-07-29T04:20:05;75038.47;;;-147.06;100.00
54453;BME280;40363;52.270;10.546;2023-07-29T04:22:33;75030.25;;;-147.06;100.00
54453;BME280;40363;52.270;10.546;2023-07-29T04:24:59;75030.25;;;-147.06;100.00
54453;BME280;40363;52.270;10.546;2023-07-29T04:27:26;75028.19;;;-147.06;100.00
54453;BME280;40363;52.270;10.546;2023-07-29T04:29:53;75009.69;;;-147.06;100.00
54453;BME280;40363;52.270;10.546;2023-07-29T04:32:21;75003.53;;;-147.06;100.00
54453;BME280;40363;52.270;10.546;2023-07-29T04:34:47;74997.38;;;-147.06;100.00
54453;BME280;40363;52.270;10.546;2023-07-29T04:37:14;75007.63;;;-147.06;100.00
54453;BME280;40363;52.270;10.546;2023-07-29T04:39:40;75009.69;;;-147.06;100.00
54453;BME280;40363;52.270;10.546;2023-07-29T04:42:07;75017.91;;;-147.06;100.00
54453;BME280;40363;52.270;10.546;2023-07-29T04:44:33;75009.69;;;-147.06;100.00
54453;BME280;40363;52.270;10.546;2023-07-29T04:47:00;74987.09;;;-147.06;100.00
54453;BME280;40363;52.270;10.546;2023-07-29T04:49:28;74974.78;;;-147.06;100.00
54453;BME280;40363;52.270;10.546;2023-07-29T04:51:54;74952.16;;;-147.06;100.00
54453;BME280;40363;52.270;10.546;2023-07-29T04:54:21;74960.38;;;-147.06;100.00
54453;BME280;40363;52.270;10.546;2023-07-29T04:56:48;74974.78;;;-147.06;100.00
54453;BME280;40363;52.270;10.546;2023-07-29T04:59:14;74974.78;;;-147.06;100.00
54453;BME280;40363;52.270;10.546;2023-07-29T05:01:41;74972.72;;;-147.06;100.00
54453;BME280;40363;52.270;10.546;2023-07-29T05:04:08;74964.50;;;-147.06;100.00
54453;BME280;40363;52.270;10.546;2023-07-29T05:06:36;74948.06;;;-147.06;100.00
54453;BME280;40363;52.270;10.546;2023-07-29T05:09:12;74937.78;;;-147.06;100.00
54453;BME280;40363;52.270;10.546;2023-07-29T05:11:39;74948.06;;;-147.06;100.00
54453;BME280;40363;52.270;10.546;2023-07-29T05:14:06;74943.94;;;-147.06;100.00
54453;BME280;40363;52.270;10.546;2023-07-29T05:16:34;74935.72;;;-147.06;100.00
54453;BME280;40363;52.270;10.546;2023-07-29T05:19:00;74935.72;;;-147.06;100.00
54453;BME280;40363;52.270;10.546;2023-07-29T05:21:27;74927.50;;;-147.06;100.00
54453;BME280;40363;52.270;10.546;2023-07-29T05:23:55;74941.91;;;-147.06;100.00
54453;BME280;40363;52.270;10.546;2023-07-29T05:26:22;74950.13;;;-147.06;100.00
54453;BME280;40363;52.270;10.546;2023-07-29T05:28:48;74941.91;;;-147.06;100.00
54453;BME280;40363;52.270;10.546;2023-07-29T05:31:15;74937.78;;;-147.06;100.00
54453;BME280;40363;52.270;10.546;2023-07-29T05:33:41;74946.00;;;-147.06;100.00
54453;BME280;40363;52.270;10.546;2023-07-29T05:36:08;74943.94;;;-147.06;100.00
54453;BME280;40363;52.270;10.546;2023-07-29T05:38:34;74948.06;;;-147.06;100.00
54453;BME280;40363;52.270;10.546;2023-07-29T05:41:02;74931.63;;;-147.06;100.00
54453;BME280;40363;52.270;10.546;2023-07-29T05:43:29;74898.75;;;-147.06;100.00
54453;BME280;40363;52.270;10.546;2023-07-29T05:45:55;74878.19;;;-147.06;100.00
54453;BME280;40363;52.270;10.546;2023-07-29T05:48:22;74869.97;;;-147.06;100.00
54453;BME280;40363;52.270;10.546;2023-07-29T05:50:48;74872.03;;;-147.06;100.00
54453;BME280;40363;52.270;10.546;2023-07-29T05:53:15;74861.75;;;-147.06;100.00
54453;BME280;40363;52.270;10.546;2023-07-29T05:55:42;74859.72;;;-147.06;100.00
54453;BME280;40363;52.270;10.546;2023-07-29T05:58:10;74857.66;;;-147.06;100.00
54453;BME280;40363;52.270;10.546;2023-07-29T06:00:36;74861.75;;;-147.06;100.00
54453;BME280;40363;52.270;10.546;2023-07-29T06:03:03;74867.94;;;-147.06;100.00
54453;BME280;40363;52.270;10.546;2023-07-29T06:05:29;74874.09;;;-147.06;100.00
54453;BME280;40363;52.270;10.546;2023-07-29T06:07:56;74880.25;;;-147.06;100.00
54453;BME280;40363;52.270;10.546;2023-07-29T06:10:22;74890.53;;;-147.06;100.00
54453;BME280;40363;52.270;10.546;2023-07-29T06:12:49;74902.84;;;-147.06;100.00
54453;BME280;40363;52.270;10.546;2023-07-29T06:15:17;74898.75;;;-147.06;100.00
54453;BME280;40363;52.270;10.546;2023-07-29T06:17:47;74913.13;;;-147.06;100.00
54453;BME280;40363;52.270;10.546;2023-07-29T06:20:13;74917.25;;;-147.06;100.00
54453;BME280;40363;52.270;10.546;2023-07-29T06:22:41;74921.34;;;-147.06;100.00
54453;BME280;40363;52.270;10.546;2023-07-29T06:25:08;74933.69;;;-147.06;100.00
54453;BME280;40363;52.270;10.546;2023-07-29T06:27:34;74939.84;;;-147.06;100.00
54453;BME280;40363;52.270;10.546;2023-07-29T06:30:01;74946.00;;;-147.06;100.00
54453;BME280;40363;52.270;10.546;2023-07-29T06:32:29;74952.16;;;-147.06;100.00
54453;BME280;40363;52.270;10.546;2023-07-29T06:34:56;74968.59;;;-147.06;100.00
54453;BME280;40363;52.270;10.546;2023-07-29T06:37:23;74972.72;;;-147.06;100.00
54453;BME280;40363;52.270;10.546;2023-07-29T06:39:49;74980.94;;;-147.06;100.00
54453;BME280;40363;52.270;10.546;2023-07-29T06:42:16;74985.03;;;-147.06;100.00
54453;BME280;40363;52.270;10.546;2023-07-29T06:44:42;74978.88;;;-147.06;100.00
54453;BME280;40363;52.270;10.546;2023-07-29T06:47:11;74978.88;;;-147.06;100.00
54453;BME280;40363;52.270;10.546;2023-07-29T06:49:39;74987.09;;;-147.06;100.00
54453;BME280;40363;52.270;10.546;2023-07-29T06:52:05;74983.00;;;-147.06;100.00
54453;BME280;40363;52.270;10.546;2023-07-29T06:54:32;75001.47;;;-147.06;100.00
54453;BME280;40363;52.270;10.546;2023-07-29T06:56:59;75017.91;;;-147.06;100.00
54453;BME280;40363;52.270;10.546;2023-07-29T06:59:25;75022.03;;;-147.06;100.00
54453;BME280;40363;52.270;10.546;2023-07-29T07:01:52;75024.06;;;-147.06;100.00
54453;BME280;40363;52.270;10.546;2023-07-29T07:04:18;75024.06;;;-147.06;100.00
54453;BME280;40363;52.270;10.546;2023-07-29T07:06:46;75022.03;;;-147.06;100.00
54453;BME280;40363;52.270;10.546;2023-07-29T07:09:13;75026.13;;;-147.06;100.00
54453;BME280;40363;52.270;10.546;2023-07-29T07:11:39;75059.00;;;-147.06;100.00
54453;BME280;40363;52.270;10.546;2023-07-29T07:14:06;75059.00;;;-147.06;100.00
54453;BME280;40363;52.270;10.546;2023-07-29T07:16:33;75042.56;;;-147.06;100.00
54453;BME280;40363;52.270;10.546;2023-07-29T07:19:01;75044.63;;;-147.06;100.00
54453;BME280;40363;52.270;10.546;2023-07-29T07:21:28;75034.34;;;-147.06;100.00
54453;BME280;40363;52.270;10.546;2023-07-29T07:23:56;75032.28;;;-147.06;100.00
54453;BME280;40363;52.270;10.546;2023-07-29T07:26:22;75022.03;;;-147.06;100.00
54453;BME280;40363;52.270;10.546;2023-07-29T07:28:49;75009.69;;;-147.06;100.00
54453;BME280;40363;52.270;10.546;2023-07-29T07:31:16;75001.47;;;-147.06;100.00
54453;BME280;40363;52.270;10.546;2023-07-29T07:33:43;75005.59;;;-147.06;100.00
54453;BME280;40363;52.270;10.546;2023-07-29T07:36:09;75009.69;;;-147.06;100.00
54453;BME280;40363;52.270;10.546;2023-07-29T07:38:36;74991.19;;;-147.06;100.00
54453;BME280;40363;52.270;10.546;2023-07-29T07:41:04;75003.53;;;-147.06;100.00
54453;BME280;40363;52.270;10.546;2023-07-29T07:43:30;74987.09;;;-147.06;100.00
54453;BME280;40363;52.270;10.546;2023-07-29T07:45:57;74964.50;;;-147.06;100.00
54453;BME280;40363;52.270;10.546;2023-07-29T07:48:24;74948.06;;;-147.06;100.00
54453;BME280;40363;52.270;10.546;2023-07-29T07:50:54;74937.78;;;-147.06;100.00
54453;BME280;40363;52.270;10.546;2023-07-29T07:53:20;74933.69;;;-147.06;100.00
54453;BME280;40363;52.270;10.546;2023-07-29T07:55:47;74948.06;;;-147.06;100.00
54453;BME280;40363;52.270;10.546;2023-07-29T07:58:15;74925.47;;;-147.06;100.00
54453;BME280;40363;52.270;10.546;2023-07-29T08:00:41;74931.63;;;-147.06;100.00
54453;BME280;40363;52.270;10.546;2023-07-29T08:03:08;74927.50;;;-147.06;100.00
54453;BME280;40363;52.270;10.546;2023-07-29T08:05:34;74915.19;;;-147.06;100.00
54453;BME280;40363;52.270;10.546;2023-07-29T08:08:01;74894.63;;;-147.06;100.00
54453;BME280;40363;52.270;10.546;2023-07-29T08:10:28;74900.81;;;-147.06;100.00
54453;BME280;40363;52.270;10.546;2023-07-29T08:12:54;74894.63;;;-147.06;100.00
54453;BME280;40363;52.270;10.546;2023-07-29T08:15:22;74822.72;;;-147.06;100.00
54453;BME280;40363;52.270;10.546;2023-07-29T08:17:49;74791.91;;;-147.06;100.00
54453;BME280;40363;52.270;10.546;2023-07-29T08:20:15;74722.06;;;-147.06;100.00
54453;BME280;40363;52.270;10.546;2023-07-29T08:22:42;74652.22;;;-147.06;100.00
54453;BME280;40363;52.270;10.546;2023-07-29T08:25:08;74654.25;;;-147.06;100.00
54453;BME280;40363;52.270;10.546;2023-07-29T08:27:35;74644.00;;;-147.06;100.00
54453;BME280;40363;52.270;10.546;2023-07-29T08:30:02;74637.81;;;-147.06;100.00
54453;BME280;40363;52.270;10.546;2023-07-29T08:32:30;74625.50;;;-147.06;100.00
54453;BME280;40363;52.270;10.546;2023-07-29T08:34:56;74668.66;;;-147.06;99.90
54453;BME280;40363;52.270;10.546;2023-07-29T08:37:23;74660.44;;;-147.06;100.00
54453;BME280;40363;52.270;10.546;2023-07-29T08:39:49;74572.09;;;-147.06;97.85
54453;BME280;40363;52.270;10.546;2023-07-29T08:42:19;74491.97;;;-147.06;96.14
54453;BME280;40363;52.270;10.546;2023-07-29T08:44:49;74489.91;;;-147.06;92.82
54453;BME280;40363;52.270;10.546;2023-07-29T08:47:15;74528.94;;;-147.06;93.89
54453;BME280;40363;52.270;10.546;2023-07-29T08:49:43;74561.81;;;-147.06;95.43
54453;BME280;40363;52.270;10.546;2023-07-29T08:52:12;74563.88;;;-147.06;96.97
54453;BME280;40363;52.270;10.546;2023-07-29T08:54:40;74590.56;;;-147.06;97.02
54453;BME280;40363;52.270;10.546;2023-07-29T08:57:07;74633.72;;;-147.06;98.60
54453;BME280;40363;52.270;10.546;2023-07-29T08:59:33;74660.44;;;-147.06;99.40
54453;BME280;40363;52.270;10.546;2023-07-29T09:02:00;74656.31;;;-147.06;98.14
54453;BME280;40363;52.270;10.546;2023-07-29T09:04:27;74664.53;;;-147.06;97.92
54453;BME280;40363;52.270;10.546;2023-07-29T09:06:56;74635.78;;;-147.06;97.05
54453;BME280;40363;52.270;10.546;2023-07-29T09:09:22;74633.72;;;-147.06;95.91
54453;BME280;40363;52.270;10.546;2023-07-29T09:11:49;74623.44;;;-147.06;96.04
54453;BME280;40363;52.270;10.546;2023-07-29T09:14:16;74611.13;;;-147.06;97.67
54453;BME280;40363;52.270;10.546;2023-07-29T09:16:43;74615.22;;;-147.06;97.45
54453;BME280;40363;52.270;10.546;2023-07-29T09:19:10;74644.00;;;-147.06;98.40
54453;BME280;40363;52.270;10.546;2023-07-29T09:21:38;74660.44;;;-147.06;97.95
54453;BME280;40363;52.270;10.546;2023-07-29T09:24:07;74648.09;;;-147.06;97.38
54453;BME280;40363;52.270;10.546;2023-07-29T09:26:33;74678.91;;;-147.06;98.10
54453;BME280;40363;52.270;10.546;2023-07-29T09:29:00;74689.19;;;-147.06;99.33
54453;BME280;40363;52.270;10.546;2023-07-29T09:31:28;74678.91;;;-147.06;98.75
54453;BME280;40363;52.270;10.546;2023-07-29T09:33:56;74656.31;;;-147.06;97.13
54453;BME280;40363;52.270;10.546;2023-07-29T09:36:23;74627.56;;;-147.06;95.90
54453;BME280;40363;52.270;10.546;2023-07-29T09:38:52;74602.91;;;-147.06;95.02
54453;BME280;40363;52.270;10.546;2023-07-29T09:41:23;74565.91;;;-147.06;93.24
54453;BME280;40363;52.270;10.546;2023-07-29T09:43:55;74545.38;;;-147.06;92.99
54453;BME280;40363;52.270;10.546;2023-07-29T09:46:23;74533.06;;;-147.06;93.52
54453;BME280;40363;52.270;10.546;2023-07-29T09:48:53;74561.81;;;-147.06;93.61
54453;BME280;40363;52.270;10.546;2023-07-29T09:51:19;74584.41;;;-147.06;94.48
54453;BME280;40363;52.270;10.546;2023-07-29T09:53:47;74598.78;;;-147.06;94.21
54453;BME280;40363;52.270;10.546;2023-07-29T09:56:15;74623.44;;;-147.06;94.03
54453;BME280;40363;52.270;10.546;2023-07-29T09:58:44;74639.88;;;-147.06;95.08
54453;BME280;40363;52.270;10.546;2023-07-29T10:01:11;74627.56;;;-147.06;95.47
54453;BME280;40363;52.270;10.546;2023-07-29T10:03:38;74602.91;;;-147.06;95.52
54453;BME280;40363;52.270;10.546;2023-07-29T10:06:06;74596.75;;;-147.06;95.67
54453;BME280;40363;52.270;10.546;2023-07-29T10:08:33;74594.69;;;-147.06;95.06
54453;BME280;40363;52.270;10.546;2023-07-29T10:11:01;74553.59;;;-147.06;93.91
54453;BME280;40363;52.270;10.546;2023-07-29T10:13:29;74504.28;;;-147.06;91.47
54453;BME280;40363;52.270;10.546;2023-07-29T10:15:57;74446.78;;;-147.06;89.16
54453;BME280;40363;52.270;10.546;2023-07-29T10:18:24;74428.28;;;-147.06;87.36
54453;BME280;40363;52.270;10.546;2023-07-29T10:20:52;74450.88;;;-147.06;86.33
54453;BME280;40363;52.270;10.546;2023-07-29T10:23:21;74409.78;;;-147.06;85.54
54453;BME280;40363;52.270;10.546;2023-07-29T10:25:52;74276.25;;;-147.06;81.45
54453;BME280;40363;52.270;10.546;2023-07-29T10:28:22;74257.78;;;-147.06;79.96
54453;BME280;40363;52.270;10.546;2023-07-29T10:30:52;74259.84;;;-147.06;78.83
54453;BME280;40363;52.270;10.546;2023-07-29T10:33:20;74179.72;;;-147.06;76.60
54453;BME280;40363;52.270;10.546;2023-07-29T10:35:47;74278.31;;;-147.06;78.38
54453;BME280;40363;52.270;10.546;2023-07-29T10:38:14;74325.56;;;-147.06;81.51
54453;BME280;40363;52.270;10.546;2023-07-29T10:40:45;74356.38;;;-147.06;81.09
54453;BME280;40363;52.270;10.546;2023-07-29T10:43:15;74428.28;;;-147.06;84.23
54453;BME280;40363;52.270;10.546;2023-07-29T10:45:45;74405.69;;;-147.06;84.55
54453;BME280;40363;52.270;10.546;2023-07-29T10:48:12;74399.53;;;-147.06;83.84
54453;BME280;40363;52.270;10.546;2023-07-29T10:50:40;74360.50;;;-147.06;82.12
54453;BME280;40363;52.270;10.546;2023-07-29T10:53:07;74333.78;;;-147.06;81.17
54453;BME280;40363;52.270;10.546;2023-07-29T10:55:34;74360.50;;;-147.06;80.21
54453;BME280;40363;52.270;10.546;2023-07-29T10:58:07;74346.09;;;-147.06;80.07
54453;BME280;40363;52.270;10.546;2023-07-29T11:00:34;74247.50;;;-147.06;76.70
54453;BME280;40363;52.270;10.546;2023-07-29T11:03:04;74212.59;;;-147.06;75.52
54453;BME280;40363;52.270;10.546;2023-07-29T11:05:49;74237.22;;;-147.06;75.89
54453;BME280;40363;52.270;10.546;2023-07-29T11:08:17;74266.00;;;-147.06;77.57
54453;BME280;40363;52.270;10.546;2023-07-29T11:10:57;74282.44;;;-147.06;78.12
54453;BME280;40363;52.270;10.546;2023-07-29T11:13:26;74278.31;;;-147.06;78.43
54453;BME280;40363;52.270;10.546;2023-07-29T11:15:53;74278.31;;;-147.06;78.68
54453;BME280;40363;52.270;10.546;2023-07-29T11:18:21;74333.78;;;-147.06;80.58
54453;BME280;40363;52.270;10.546;2023-07-29T11:20:49;74342.00;;;-147.06;85.65
54453;BME280;40363;52.270;10.546;2023-07-29T11:23:16;74368.72;;;-147.06;87.57
54453;BME280;40363;52.270;10.546;2023-07-29T11:25:43;74366.66;;;-147.06;87.11
54453;BME280;40363;52.270;10.546;2023-07-29T11:28:09;74413.91;;;-147.06;88.50
54453;BME280;40363;52.270;10.546;2023-07-29T11:30:38;74440.59;;;-147.06;88.19
54453;BME280;40363;52.270;10.546;2023-07-29T11:33:05;74459.09;;;-147.06;87.51
54453;BME280;40363;52.270;10.546;2023-07-29T11:35:32;74496.06;;;-147.06;89.42
54453;BME280;40363;52.270;10.546;2023-07-29T11:38:00;74500.19;;;-147.06;88.90
54453;BME280;40363;52.270;10.546;2023-07-29T11:40:27;74506.34;;;-147.06;90.36
54453;BME280;40363;52.270;10.546;2023-07-29T11:42:54;74508.41;;;-147.06;91.03
54453;BME280;40363;52.270;10.546;2023-07-29T11:45:23;74487.84;;;-147.06;90.10
54453;BME280;40363;52.270;10.546;2023-07-29T11:47:50;74498.13;;;-147.06;88.83
54453;BME280;40363;52.270;10.546;2023-07-29T11:50:16;74494.03;;;-147.06;88.98
54453;BME280;40363;52.270;10.546;2023-07-29T11:52:45;74473.47;;;-147.06;89.72
54453;BME280;40363;52.270;10.546;2023-07-29T11:55:14;74446.78;;;-147.06;85.52
54453;BME280;40363;52.270;10.546;2023-07-29T11:57:42;74446.78;;;-147.06;86.89
54453;BME280;40363;52.270;10.546;2023-07-29T12:00:10;74434.44;;;-147.06;83.43
54453;BME280;40363;52.270;10.546;2023-07-29T12:02:39;74426.22;;;-147.06;82.19
54453;BME280;40363;52.270;10.546;2023-07-29T12:05:06;74418.00;;;-147.06;84.27
54453;BME280;40363;52.270;10.546;2023-07-29T12:07:34;74401.56;;;-147.06;83.33
54453;BME280;40363;52.270;10.546;2023-07-29T12:10:02;74381.03;;;-147.06;82.49
54453;BME280;40363;52.270;10.546;2023-07-29T12:12:30;74381.03;;;-147.06;82.80
54453;BME280;40363;52.270;10.546;2023-07-29T12:14:57;74352.28;;;-147.06;80.03
54453;BME280;40363;52.270;10.546;2023-07-29T12:17:24;74385.16;;;-147.06;79.97
54453;BME280;40363;52.270;10.546;2023-07-29T12:19:54;74395.41;;;-147.06;79.61
54453;BME280;40363;52.270;10.546;2023-07-29T12:22:21;74397.47;;;-147.06;79.46
54453;BME280;40363;52.270;10.546;2023-07-29T12:24:50;74395.41;;;-147.06;76.79